sensor_id;sensor_type;location;lat;lon;timestamp;P1;durP1;ratioP1;P2;durP2;ratioP2
8046;SDS011;67150;42.516;23.358;2023-09-19T00:01:39;4.10;;;3.70;;
8046;SDS011;67150;42.516;23.358;2023-09-19T00:04:08;4.40;;;4.00;;
8046;SDS011;67150;42.516;23.358;2023-09-19T00:06:36;3.97;;;3.53;;
8046;SDS011;67150;42.516;23.358;2023-09-19T00:09:03;3.53;;;3.23;;
8046;SDS011;67150;42.516;23.358;2023-09-19T00:11:35;4.07;;;3.73;;
8046;SDS011;67150;42.516;23.358;2023-09-19T00:14:03;4.00;;;3.60;;
8046;SDS011;67150;42.516;23.358;2023-09-19T00:16:34;4.27;;;3.50;;
8046;SDS011;67150;42.516;23.358;2023-09-19T00:19:01;3.90;;;3.60;;
8046;SDS011;67150;42.516;23.358;2023-09-19T00:21:35;3.90;;;3.60;;
8046;SDS011;67150;42.516;23.358;2023-09-19T00:24:04;4.07;;;3.67;;
8046;SDS011;67150;42.516;23.358;2023-09-19T00:26:32;3.77;;;3.47;;
8046;SDS011;67150;42.516;23.358;2023-09-19T00:28:59;3.60;;;3.30;;
8046;SDS011;67150;42.516;23.358;2023-09-19T00:31:31;4.63;;;3.47;;
8046;SDS011;67150;42.516;23.358;2023-09-19T00:33:58;6.90;;;3.33;;
8046;SDS011;67150;42.516;23.358;2023-09-19T00:36:29;3.70;;;3.40;;
8046;SDS011;67150;42.516;23.358;2023-09-19T00:38:58;4.83;;;3.53;;
8046;SDS011;67150;42.516;23.358;2023-09-19T00:41:25;3.93;;;3.63;;
8046;SDS011;67150;42.516;23.358;2023-09-19T00:43:55;3.77;;;3.47;;
8046;SDS011;67150;42.516;23.358;2023-09-19T00:46:22;3.80;;;3.50;;
8046;SDS011;67150;42.516;23.358;2023-09-19T00:48:51;4.70;;;3.50;;
8046;SDS011;67150;42.516;23.358;2023-09-19T00:51:18;3.70;;;3.17;;
8046;SDS011;67150;42.516;23.358;2023-09-19T00:53:48;4.23;;;3.60;;
8046;SDS011;67150;42.516;23.358;2023-09-19T00:56:17;3.80;;;3.50;;
8046;SDS011;67150;42.516;23.358;2023-09-19T00:58:44;3.73;;;3.43;;
8046;SDS011;67150;42.516;23.358;2023-09-19T01:01:12;3.90;;;3.60;;
8046;SDS011;67150;42.516;23.358;2023-09-19T01:03:40;5.40;;;3.87;;
8046;SDS011;67150;42.516;23.358;2023-09-19T01:06:08;3.67;;;3.37;;
8046;SDS011;67150;42.516;23.358;2023-09-19T01:08:35;4.53;;;3.53;;
8046;SDS011;67150;42.516;23.358;2023-09-19T01:11:06;3.60;;;3.30;;
8046;SDS011;67150;42.516;23.358;2023-09-19T01:13:43;5.10;;;3.40;;
8046;SDS011;67150;42.516;23.358;2023-09-19T01:16:20;4.10;;;3.63;;
8046;SDS011;67150;42.516;23.358;2023-09-19T01:18:58;3.80;;;3.50;;
8046;SDS011;67150;42.516;23.358;2023-09-19T01:21:37;3.80;;;3.50;;
8046;SDS011;67150;42.516;23.358;2023-09-19T01:24:23;3.50;;;3.20;;
8046;SDS011;67150;42.516;23.358;2023-09-19T01:27:25;4.20;;;3.80;;
8046;SDS011;67150;42.516;23.358;2023-09-19T01:30:21;3.63;;;3.33;;
8046;SDS011;67150;42.516;23.358;2023-09-19T01:32:52;3.90;;;3.50;;
8046;SDS011;67150;42.516;23.358;2023-09-19T01:35:19;3.90;;;3.60;;
8046;SDS011;67150;42.516;23.358;2023-09-19T01:37:47;4.00;;;3.60;;
8046;SDS011;67150;42.516;23.358;2023-09-19T01:40:17;4.47;;;4.07;;
8046;SDS011;67150;42.516;23.358;2023-09-19T01:42:49;4.27;;;3.87;;
8046;SDS011;67150;42.516;23.358;2023-09-19T01:45:25;4.10;;;3.70;;
8046;SDS011;67150;42.516;23.358;2023-09-19T01:48:02;4.30;;;3.90;;
8046;SDS011;67150;42.516;23.358;2023-09-19T01:50:42;4.77;;;3.70;;
8046;SDS011;67150;42.516;23.358;2023-09-19T01:53:19;3.87;;;3.57;;
8046;SDS011;67150;42.516;23.358;2023-09-19T01:55:53;3.97;;;3.67;;
8046;SDS011;67150;42.516;23.358;2023-09-19T01:58:21;4.50;;;3.90;;
8046;SDS011;67150;42.516;23.358;2023-09-19T02:00:58;4.40;;;4.00;;
8046;SDS011;67150;42.516;23.358;2023-09-19T02:03:26;4.47;;;3.90;;
8046;SDS011;67150;42.516;23.358;2023-09-19T02:05:55;4.27;;;3.93;;
8046;SDS011;67150;42.516;23.358;2023-09-19T02:08:22;5.13;;;3.83;;
8046;SDS011;67150;42.516;23.358;2023-09-19T02:10:50;4.00;;;3.70;;
8046;SDS011;67150;42.516;23.358;2023-09-19T02:13:18;4.00;;;3.70;;
8046;SDS011;67150;42.516;23.358;2023-09-19T02:15:46;4.10;;;3.70;;
8046;SDS011;67150;42.516;23.358;2023-09-19T02:18:15;3.70;;;3.50;;
8046;SDS011;67150;42.516;23.358;2023-09-19T02:20:42;4.77;;;3.70;;
8046;SDS011;67150;42.516;23.358;2023-09-19T02:23:10;5.13;;;4.00;;
8046;SDS011;67150;42.516;23.358;2023-09-19T02:25:38;3.90;;;3.60;;
8046;SDS011;67150;42.516;23.358;2023-09-19T02:28:05;4.17;;;3.63;;
8046;SDS011;67150;42.516;23.358;2023-09-19T02:30:34;4.57;;;3.90;;
8046;SDS011;67150;42.516;23.358;2023-09-19T02:33:03;4.10;;;3.80;;
8046;SDS011;67150;42.516;23.358;2023-09-19T02:35:32;4.67;;;4.27;;
8046;SDS011;67150;42.516;23.358;2023-09-19T02:38:01;4.37;;;3.90;;
8046;SDS011;67150;42.516;23.358;2023-09-19T02:40:31;4.53;;;4.13;;
8046;SDS011;67150;42.516;23.358;2023-09-19T02:43:01;4.50;;;4.10;;
8046;SDS011;67150;42.516;23.358;2023-09-19T02:45:28;4.10;;;3.77;;
8046;SDS011;67150;42.516;23.358;2023-09-19T02:47:56;4.80;;;4.37;;
8046;SDS011;67150;42.516;23.358;2023-09-19T02:50:23;4.80;;;3.80;;
8046;SDS011;67150;42.516;23.358;2023-09-19T02:52:52;5.43;;;4.00;;
8046;SDS011;67150;42.516;23.358;2023-09-19T02:55:20;4.23;;;3.93;;
8046;SDS011;67150;42.516;23.358;2023-09-19T02:57:48;4.10;;;3.80;;
8046;SDS011;67150;42.516;23.358;2023-09-19T03:00:16;4.47;;;4.03;;
8046;SDS011;67150;42.516;23.358;2023-09-19T03:02:46;4.60;;;4.20;;
8046;SDS011;67150;42.516;23.358;2023-09-19T03:05:14;4.00;;;3.60;;
8046;SDS011;67150;42.516;23.358;2023-09-19T03:07:41;4.10;;;3.80;;
8046;SDS011;67150;42.516;23.358;2023-09-19T03:10:12;4.70;;;3.97;;
8046;SDS011;67150;42.516;23.358;2023-09-19T03:12:41;4.30;;;3.90;;
8046;SDS011;67150;42.516;23.358;2023-09-19T03:15:09;4.03;;;3.73;;
8046;SDS011;67150;42.516;23.358;2023-09-19T03:17:37;4.80;;;4.07;;
8046;SDS011;67150;42.516;23.358;2023-09-19T03:20:04;4.33;;;3.93;;
8046;SDS011;67150;42.516;23.358;2023-09-19T03:22:35;4.13;;;3.70;;
8046;SDS011;67150;42.516;23.358;2023-09-19T03:25:02;5.10;;;3.97;;
8046;SDS011;67150;42.516;23.358;2023-09-19T03:27:34;4.30;;;3.90;;
8046;SDS011;67150;42.516;23.358;2023-09-19T03:30:02;4.10;;;3.80;;
8046;SDS011;67150;42.516;23.358;2023-09-19T03:32:33;4.07;;;3.70;;
8046;SDS011;67150;42.516;23.358;2023-09-19T03:35:01;4.13;;;3.83;;
8046;SDS011;67150;42.516;23.358;2023-09-19T03:37:30;4.03;;;3.67;;
8046;SDS011;67150;42.516;23.358;2023-09-19T03:39:59;4.10;;;3.80;;
8046;SDS011;67150;42.516;23.358;2023-09-19T03:42:30;3.67;;;3.30;;
8046;SDS011;67150;42.516;23.358;2023-09-19T03:44:58;5.93;;;3.73;;
8046;SDS011;67150;42.516;23.358;2023-09-19T03:47:31;4.00;;;3.70;;
8046;SDS011;67150;42.516;23.358;2023-09-19T03:49:58;5.03;;;3.53;;
8046;SDS011;67150;42.516;23.358;2023-09-19T03:52:25;4.50;;;3.73;;
8046;SDS011;67150;42.516;23.358;2023-09-19T03:54:55;3.80;;;3.50;;
8046;SDS011;67150;42.516;23.358;2023-09-19T03:57:23;3.60;;;3.30;;
8046;SDS011;67150;42.516;23.358;2023-09-19T03:59:50;3.77;;;3.47;;
8046;SDS011;67150;42.516;23.358;2023-09-19T04:02:20;3.97;;;3.57;;
8046;SDS011;67150;42.516;23.358;2023-09-19T04:04:49;3.87;;;3.50;;
8046;SDS011;67150;42.516;23.358;2023-09-19T04:07:16;3.97;;;3.60;;
8046;SDS011;67150;42.516;23.358;2023-09-19T04:09:44;4.20;;;3.80;;
8046;SDS011;67150;42.516;23.358;2023-09-19T04:12:14;3.57;;;3.37;;
8046;SDS011;67150;42.516;23.358;2023-09-19T04:14:43;4.07;;;3.70;;
8046;SDS011;67150;42.516;23.358;2023-09-19T04:17:10;4.63;;;3.53;;
8046;SDS011;67150;42.516;23.358;2023-09-19T04:19:39;3.63;;;3.33;;
8046;SDS011;67150;42.516;23.358;2023-09-19T04:22:07;3.80;;;3.50;;
8046;SDS011;67150;42.516;23.358;2023-09-19T04:24:34;3.60;;;3.37;;
8046;SDS011;67150;42.516;23.358;2023-09-19T04:27:03;3.73;;;3.30;;
8046;SDS011;67150;42.516;23.358;2023-09-19T04:29:31;4.10;;;3.80;;
8046;SDS011;67150;42.516;23.358;2023-09-19T04:31:59;5.17;;;3.60;;
8046;SDS011;67150;42.516;23.358;2023-09-19T04:34:26;3.90;;;3.60;;
8046;SDS011;67150;42.516;23.358;2023-09-19T04:36:55;4.10;;;3.60;;
8046;SDS011;67150;42.516;23.358;2023-09-19T04:39:23;3.83;;;3.53;;
8046;SDS011;67150;42.516;23.358;2023-09-19T04:41:52;5.80;;;3.43;;
8046;SDS011;67150;42.516;23.358;2023-09-19T04:44:20;5.90;;;3.80;;
8046;SDS011;67150;42.516;23.358;2023-09-19T04:46:47;4.40;;;3.27;;
8046;SDS011;67150;42.516;23.358;2023-09-19T04:49:14;6.60;;;3.53;;
8046;SDS011;67150;42.516;23.358;2023-09-19T04:51:42;4.23;;;3.83;;
8046;SDS011;67150;42.516;23.358;2023-09-19T04:54:14;4.83;;;3.60;;
8046;SDS011;67150;42.516;23.358;2023-09-19T04:56:41;7.07;;;4.20;;
8046;SDS011;67150;42.516;23.358;2023-09-19T04:59:09;4.00;;;3.60;;
8046;SDS011;67150;42.516;23.358;2023-09-19T05:01:37;5.20;;;4.53;;
8046;SDS011;67150;42.516;23.358;2023-09-19T05:04:04;4.60;;;4.20;;
8046;SDS011;67150;42.516;23.358;2023-09-19T05:06:32;3.73;;;3.53;;
8046;SDS011;67150;42.516;23.358;2023-09-19T05:09:00;5.80;;;3.90;;
8046;SDS011;67150;42.516;23.358;2023-09-19T05:11:32;4.30;;;3.90;;
8046;SDS011;67150;42.516;23.358;2023-09-19T05:13:59;4.30;;;3.70;;
8046;SDS011;67150;42.516;23.358;2023-09-19T05:16:29;4.37;;;3.63;;
8046;SDS011;67150;42.516;23.358;2023-09-19T05:18:57;4.73;;;4.23;;
8046;SDS011;67150;42.516;23.358;2023-09-19T05:21:25;4.50;;;4.10;;
8046;SDS011;67150;42.516;23.358;2023-09-19T05:23:54;4.63;;;4.33;;
8046;SDS011;67150;42.516;23.358;2023-09-19T05:31:28;4.10;;;3.70;;
8046;SDS011;67150;42.516;23.358;2023-09-19T05:33:56;4.03;;;3.73;;
8046;SDS011;67150;42.516;23.358;2023-09-19T05:36:26;4.90;;;4.20;;
8046;SDS011;67150;42.516;23.358;2023-09-19T05:38:55;3.97;;;3.57;;
8046;SDS011;67150;42.516;23.358;2023-09-19T05:41:22;4.90;;;3.90;;
8046;SDS011;67150;42.516;23.358;2023-09-19T05:43:49;5.07;;;3.93;;
8046;SDS011;67150;42.516;23.358;2023-09-19T05:46:17;11.77;;;4.43;;
8046;SDS011;67150;42.516;23.358;2023-09-19T05:48:46;8.83;;;4.60;;
8046;SDS011;67150;42.516;23.358;2023-09-19T05:51:13;6.20;;;4.20;;
8046;SDS011;67150;42.516;23.358;2023-09-19T05:53:42;6.43;;;4.03;;
8046;SDS011;67150;42.516;23.358;2023-09-19T05:56:09;7.03;;;4.40;;
8046;SDS011;67150;42.516;23.358;2023-09-19T05:58:36;6.47;;;4.80;;
8046;SDS011;67150;42.516;23.358;2023-09-19T06:01:04;5.53;;;4.73;;
8046;SDS011;67150;42.516;23.358;2023-09-19T06:03:32;5.87;;;4.70;;
8046;SDS011;67150;42.516;23.358;2023-09-19T06:06:02;6.77;;;5.30;;
8046;SDS011;67150;42.516;23.358;2023-09-19T06:08:31;8.33;;;4.80;;
8046;SDS011;67150;42.516;23.358;2023-09-19T06:10:59;5.60;;;4.90;;
8046;SDS011;67150;42.516;23.358;2023-09-19T06:13:27;4.53;;;4.20;;
8046;SDS011;67150;42.516;23.358;2023-09-19T06:15:57;7.20;;;4.70;;
8046;SDS011;67150;42.516;23.358;2023-09-19T06:18:25;4.73;;;4.33;;
8046;SDS011;67150;42.516;23.358;2023-09-19T06:20:54;5.07;;;4.60;;
8046;SDS011;67150;42.516;23.358;2023-09-19T06:23:23;5.30;;;4.50;;
8046;SDS011;67150;42.516;23.358;2023-09-19T06:25:51;5.47;;;4.77;;
8046;SDS011;67150;42.516;23.358;2023-09-19T06:28:19;5.73;;;4.50;;
8046;SDS011;67150;42.516;23.358;2023-09-19T06:30:49;5.93;;;4.00;;
8046;SDS011;67150;42.516;23.358;2023-09-19T06:33:17;7.67;;;4.63;;
8046;SDS011;67150;42.516;23.358;2023-09-19T06:35:46;10.27;;;5.10;;
8046;SDS011;67150;42.516;23.358;2023-09-19T06:38:14;10.80;;;5.47;;
8046;SDS011;67150;42.516;23.358;2023-09-19T06:40:46;8.50;;;5.13;;
8046;SDS011;67150;42.516;23.358;2023-09-19T06:43:13;15.00;;;6.53;;
8046;SDS011;67150;42.516;23.358;2023-09-19T06:45:40;11.30;;;5.67;;
8046;SDS011;67150;42.516;23.358;2023-09-19T06:48:08;11.00;;;5.73;;
8046;SDS011;67150;42.516;23.358;2023-09-19T06:50:35;11.17;;;6.00;;
8046;SDS011;67150;42.516;23.358;2023-09-19T06:53:04;12.00;;;5.87;;
8046;SDS011;67150;42.516;23.358;2023-09-19T06:55:31;10.60;;;6.40;;
8046;SDS011;67150;42.516;23.358;2023-09-19T06:58:00;13.27;;;6.33;;
8046;SDS011;67150;42.516;23.358;2023-09-19T07:00:28;9.87;;;5.90;;
8046;SDS011;67150;42.516;23.358;2023-09-19T07:02:57;11.27;;;6.57;;
8046;SDS011;67150;42.516;23.358;2023-09-19T07:05:26;10.73;;;6.30;;
8046;SDS011;67150;42.516;23.358;2023-09-19T07:07:54;9.77;;;6.10;;
8046;SDS011;67150;42.516;23.358;2023-09-19T07:10:24;13.37;;;6.60;;
8046;SDS011;67150;42.516;23.358;2023-09-19T07:12:56;11.17;;;6.77;;
8046;SDS011;67150;42.516;23.358;2023-09-19T07:15:26;12.63;;;6.57;;
8046;SDS011;67150;42.516;23.358;2023-09-19T07:17:54;12.87;;;7.00;;
8046;SDS011;67150;42.516;23.358;2023-09-19T07:20:22;13.50;;;6.30;;
8046;SDS011;67150;42.516;23.358;2023-09-19T07:22:51;12.43;;;7.40;;
8046;SDS011;67150;42.516;23.358;2023-09-19T07:25:20;10.50;;;6.73;;
8046;SDS011;67150;42.516;23.358;2023-09-19T07:27:48;11.53;;;6.47;;
8046;SDS011;67150;42.516;23.358;2023-09-19T07:30:16;12.80;;;7.00;;
8046;SDS011;67150;42.516;23.358;2023-09-19T07:32:45;13.80;;;6.83;;
8046;SDS011;67150;42.516;23.358;2023-09-19T07:35:12;14.27;;;6.63;;
8046;SDS011;67150;42.516;23.358;2023-09-19T07:37:40;11.63;;;6.97;;
8046;SDS011;67150;42.516;23.358;2023-09-19T07:47:49;11.13;;;6.73;;
8046;SDS011;67150;42.516;23.358;2023-09-19T07:50:20;12.73;;;6.50;;
8046;SDS011;67150;42.516;23.358;2023-09-19T07:52:51;10.27;;;6.37;;
8046;SDS011;67150;42.516;23.358;2023-09-19T07:55:24;10.87;;;5.73;;
8046;SDS011;67150;42.516;23.358;2023-09-19T07:57:51;9.63;;;6.03;;
8046;SDS011;67150;42.516;23.358;2023-09-19T08:00:19;7.90;;;5.50;;
8046;SDS011;67150;42.516;23.358;2023-09-19T08:02:48;10.27;;;5.67;;
8046;SDS011;67150;42.516;23.358;2023-09-19T08:05:17;7.80;;;5.43;;
8046;SDS011;67150;42.516;23.358;2023-09-19T08:07:46;8.67;;;5.77;;
8046;SDS011;67150;42.516;23.358;2023-09-19T08:10:14;7.70;;;5.40;;
8046;SDS011;67150;42.516;23.358;2023-09-19T08:12:45;6.37;;;5.17;;
8046;SDS011;67150;42.516;23.358;2023-09-19T08:15:14;6.53;;;5.37;;
8046;SDS011;67150;42.516;23.358;2023-09-19T08:17:43;5.50;;;4.53;;
8046;SDS011;67150;42.516;23.358;2023-09-19T08:20:14;7.70;;;4.83;;
8046;SDS011;67150;42.516;23.358;2023-09-19T08:22:43;5.77;;;5.10;;
8046;SDS011;67150;42.516;23.358;2023-09-19T08:25:16;7.23;;;4.63;;
8046;SDS011;67150;42.516;23.358;2023-09-19T08:27:44;7.83;;;5.07;;
8046;SDS011;67150;42.516;23.358;2023-09-19T08:30:14;4.73;;;4.23;;
8046;SDS011;67150;42.516;23.358;2023-09-19T08:32:41;5.80;;;4.87;;
8046;SDS011;67150;42.516;23.358;2023-09-19T08:35:09;6.07;;;4.53;;
8046;SDS011;67150;42.516;23.358;2023-09-19T08:37:39;5.60;;;4.70;;
8046;SDS011;67150;42.516;23.358;2023-09-19T08:40:06;5.17;;;4.60;;
8046;SDS011;67150;42.516;23.358;2023-09-19T08:45:19;5.00;;;4.50;;
8046;SDS011;67150;42.516;23.358;2023-09-19T08:47:50;4.77;;;4.37;;
8046;SDS011;67150;42.516;23.358;2023-09-19T08:50:31;4.87;;;4.37;;
8046;SDS011;67150;42.516;23.358;2023-09-19T08:53:01;5.33;;;4.83;;
8046;SDS011;67150;42.516;23.358;2023-09-19T08:55:37;9.17;;;5.30;;
8046;SDS011;67150;42.516;23.358;2023-09-19T08:58:08;14.13;;;5.97;;
8046;SDS011;67150;42.516;23.358;2023-09-19T09:00:39;16.37;;;5.80;;
8046;SDS011;67150;42.516;23.358;2023-09-19T09:03:09;17.10;;;5.40;;
8046;SDS011;67150;42.516;23.358;2023-09-19T09:05:38;14.50;;;5.03;;
8046;SDS011;67150;42.516;23.358;2023-09-19T09:08:13;6.00;;;4.67;;
8046;SDS011;67150;42.516;23.358;2023-09-19T09:10:42;5.70;;;5.10;;
8046;SDS011;67150;42.516;23.358;2023-09-19T09:13:11;6.83;;;4.57;;
8046;SDS011;67150;42.516;23.358;2023-09-19T09:15:41;7.73;;;5.00;;
8046;SDS011;67150;42.516;23.358;2023-09-19T09:18:10;5.77;;;4.97;;
8046;SDS011;67150;42.516;23.358;2023-09-19T09:20:37;7.40;;;5.00;;
8046;SDS011;67150;42.516;23.358;2023-09-19T09:23:05;6.40;;;4.93;;
8046;SDS011;67150;42.516;23.358;2023-09-19T09:25:50;7.63;;;4.73;;
8046;SDS011;67150;42.516;23.358;2023-09-19T09:28:22;7.33;;;4.60;;
8046;SDS011;67150;42.516;23.358;2023-09-19T09:30:50;7.57;;;5.30;;
8046;SDS011;67150;42.516;23.358;2023-09-19T09:33:18;7.20;;;5.00;;
8046;SDS011;67150;42.516;23.358;2023-09-19T09:35:52;7.03;;;4.60;;
8046;SDS011;67150;42.516;23.358;2023-09-19T09:38:22;5.63;;;4.77;;
8046;SDS011;67150;42.516;23.358;2023-09-19T09:40:55;5.97;;;4.90;;
8046;SDS011;67150;42.516;23.358;2023-09-19T09:43:28;7.00;;;4.93;;
8046;SDS011;67150;42.516;23.358;2023-09-19T09:46:07;6.27;;;4.67;;
8046;SDS011;67150;42.516;23.358;2023-09-19T09:48:58;5.40;;;4.90;;
8046;SDS011;67150;42.516;23.358;2023-09-19T09:51:43;5.40;;;4.87;;
8046;SDS011;67150;42.516;23.358;2023-09-19T09:54:14;8.40;;;4.80;;
8046;SDS011;67150;42.516;23.358;2023-09-19T09:56:53;5.07;;;4.57;;
8046;SDS011;67150;42.516;23.358;2023-09-19T09:59:43;5.60;;;4.60;;
8046;SDS011;67150;42.516;23.358;2023-09-19T10:02:13;5.63;;;4.53;;
8046;SDS011;67150;42.516;23.358;2023-09-19T10:04:45;4.80;;;4.50;;
8046;SDS011;67150;42.516;23.358;2023-09-19T10:07:28;5.03;;;4.63;;
8046;SDS011;67150;42.516;23.358;2023-09-19T10:10:01;5.00;;;4.50;;
8046;SDS011;67150;42.516;23.358;2023-09-19T10:12:54;5.37;;;4.87;;
8046;SDS011;67150;42.516;23.358;2023-09-19T10:15:29;5.37;;;4.87;;
8046;SDS011;67150;42.516;23.358;2023-09-19T10:17:59;5.20;;;4.80;;
8046;SDS011;67150;42.516;23.358;2023-09-19T10:20:28;4.87;;;4.47;;
8046;SDS011;67150;42.516;23.358;2023-09-19T10:23:05;4.87;;;4.47;;
8046;SDS011;67150;42.516;23.358;2023-09-19T10:25:36;5.07;;;4.50;;
8046;SDS011;67150;42.516;23.358;2023-09-19T10:28:07;5.70;;;5.20;;
8046;SDS011;67150;42.516;23.358;2023-09-19T10:30:37;5.10;;;4.60;;
8046;SDS011;67150;42.516;23.358;2023-09-19T10:33:09;5.47;;;4.97;;
8046;SDS011;67150;42.516;23.358;2023-09-19T10:35:38;4.93;;;4.53;;
8046;SDS011;67150;42.516;23.358;2023-09-19T10:38:07;5.80;;;4.90;;
8046;SDS011;67150;42.516;23.358;2023-09-19T10:40:37;5.10;;;4.70;;
8046;SDS011;67150;42.516;23.358;2023-09-19T10:43:11;4.90;;;4.43;;
8046;SDS011;67150;42.516;23.358;2023-09-19T10:45:40;4.83;;;4.43;;
8046;SDS011;67150;42.516;23.358;2023-09-19T10:48:10;5.07;;;4.63;;
8046;SDS011;67150;42.516;23.358;2023-09-19T10:50:42;6.73;;;5.30;;
8046;SDS011;67150;42.516;23.358;2023-09-19T10:53:13;5.00;;;4.60;;
8046;SDS011;67150;42.516;23.358;2023-09-19T10:55:47;5.27;;;4.80;;
8046;SDS011;67150;42.516;23.358;2023-09-19T10:58:27;5.10;;;4.50;;
8046;SDS011;67150;42.516;23.358;2023-09-19T11:00:56;4.83;;;4.53;;
8046;SDS011;67150;42.516;23.358;2023-09-19T11:03:31;4.90;;;4.50;;
8046;SDS011;67150;42.516;23.358;2023-09-19T11:06:02;4.97;;;4.57;;
8046;SDS011;67150;42.516;23.358;2023-09-19T11:11:39;4.90;;;4.50;;
8046;SDS011;67150;42.516;23.358;2023-09-19T11:14:28;5.20;;;4.80;;
8046;SDS011;67150;42.516;23.358;2023-09-19T11:20:24;6.10;;;4.50;;
8046;SDS011;67150;42.516;23.358;2023-09-19T11:23:17;5.30;;;4.80;;
8046;SDS011;67150;42.516;23.358;2023-09-19T11:25:48;4.97;;;4.57;;
8046;SDS011;67150;42.516;23.358;2023-09-19T11:28:27;5.07;;;4.40;;
8046;SDS011;67150;42.516;23.358;2023-09-19T11:31:00;5.23;;;4.73;;
8046;SDS011;67150;42.516;23.358;2023-09-19T11:40:44;5.40;;;4.97;;
8046;SDS011;67150;42.516;23.358;2023-09-19T11:43:33;4.87;;;4.47;;
8046;SDS011;67150;42.516;23.358;2023-09-19T11:46:06;5.20;;;4.80;;
8046;SDS011;67150;42.516;23.358;2023-09-19T11:48:32;4.80;;;4.40;;
8046;SDS011;67150;42.516;23.358;2023-09-19T11:51:16;5.13;;;4.63;;
8046;SDS011;67150;42.516;23.358;2023-09-19T11:53:54;5.10;;;4.70;;
8046;SDS011;67150;42.516;23.358;2023-09-19T11:56:23;5.43;;;4.90;;
8046;SDS011;67150;42.516;23.358;2023-09-19T11:58:53;5.10;;;4.60;;
8046;SDS011;67150;42.516;23.358;2023-09-19T12:01:24;5.07;;;4.67;;
8046;SDS011;67150;42.516;23.358;2023-09-19T12:03:55;4.93;;;4.57;;
8046;SDS011;67150;42.516;23.358;2023-09-19T12:06:23;4.77;;;4.33;;
8046;SDS011;67150;42.516;23.358;2023-09-19T12:08:52;4.87;;;4.47;;
8046;SDS011;67150;42.516;23.358;2023-09-19T12:11:21;5.10;;;4.70;;
8046;SDS011;67150;42.516;23.358;2023-09-19T12:13:49;4.90;;;4.40;;
8046;SDS011;67150;42.516;23.358;2023-09-19T12:16:19;6.23;;;4.53;;
8046;SDS011;67150;42.516;23.358;2023-09-19T12:18:50;5.07;;;4.57;;
8046;SDS011;67150;42.516;23.358;2023-09-19T12:21:26;5.13;;;4.73;;
8046;SDS011;67150;42.516;23.358;2023-09-19T12:23:59;4.67;;;4.27;;
8046;SDS011;67150;42.516;23.358;2023-09-19T12:26:40;5.00;;;4.60;;
8046;SDS011;67150;42.516;23.358;2023-09-19T12:29:12;5.27;;;4.63;;
8046;SDS011;67150;42.516;23.358;2023-09-19T12:31:52;5.40;;;4.90;;
8046;SDS011;67150;42.516;23.358;2023-09-19T12:34:24;5.13;;;4.70;;
8046;SDS011;67150;42.516;23.358;2023-09-19T12:37:03;5.20;;;4.80;;
8046;SDS011;67150;42.516;23.358;2023-09-19T12:39:37;5.10;;;4.70;;
8046;SDS011;67150;42.516;23.358;2023-09-19T12:42:10;4.70;;;4.40;;
8046;SDS011;67150;42.516;23.358;2023-09-19T12:44:42;5.00;;;4.60;;
8046;SDS011;67150;42.516;23.358;2023-09-19T12:47:12;4.97;;;4.47;;
8046;SDS011;67150;42.516;23.358;2023-09-19T12:52:41;5.33;;;4.83;;
8046;SDS011;67150;42.516;23.358;2023-09-19T12:55:20;5.07;;;4.57;;
8046;SDS011;67150;42.516;23.358;2023-09-19T12:57:55;5.17;;;4.77;;
8046;SDS011;67150;42.516;23.358;2023-09-19T13:00:31;5.63;;;5.13;;
8046;SDS011;67150;42.516;23.358;2023-09-19T13:03:10;5.10;;;4.70;;
8046;SDS011;67150;42.516;23.358;2023-09-19T13:05:49;5.30;;;4.90;;
8046;SDS011;67150;42.516;23.358;2023-09-19T13:08:17;5.23;;;4.83;;
8046;SDS011;67150;42.516;23.358;2023-09-19T13:11:04;5.30;;;4.80;;
8046;SDS011;67150;42.516;23.358;2023-09-19T13:13:35;5.43;;;4.67;;
8046;SDS011;67150;42.516;23.358;2023-09-19T13:16:04;6.27;;;4.33;;
8046;SDS011;67150;42.516;23.358;2023-09-19T13:18:41;6.43;;;5.00;;
8046;SDS011;67150;42.516;23.358;2023-09-19T13:21:14;5.00;;;4.60;;
8046;SDS011;67150;42.516;23.358;2023-09-19T13:23:49;5.20;;;4.70;;
8046;SDS011;67150;42.516;23.358;2023-09-19T13:26:17;5.33;;;4.93;;
8046;SDS011;67150;42.516;23.358;2023-09-19T13:28:45;4.90;;;4.50;;
8046;SDS011;67150;42.516;23.358;2023-09-19T13:31:14;5.13;;;4.73;;
8046;SDS011;67150;42.516;23.358;2023-09-19T13:33:42;6.70;;;5.00;;
8046;SDS011;67150;42.516;23.358;2023-09-19T13:36:10;5.50;;;5.00;;
8046;SDS011;67150;42.516;23.358;2023-09-19T13:38:40;5.13;;;4.63;;
8046;SDS011;67150;42.516;23.358;2023-09-19T13:41:09;5.07;;;4.63;;
8046;SDS011;67150;42.516;23.358;2023-09-19T13:43:36;4.87;;;4.40;;
8046;SDS011;67150;42.516;23.358;2023-09-19T13:46:04;4.90;;;4.40;;
8046;SDS011;67150;42.516;23.358;2023-09-19T13:48:33;5.30;;;4.80;;
8046;SDS011;67150;42.516;23.358;2023-09-19T13:51:01;5.20;;;4.70;;
8046;SDS011;67150;42.516;23.358;2023-09-19T13:53:29;5.37;;;4.80;;
8046;SDS011;67150;42.516;23.358;2023-09-19T13:55:59;4.60;;;4.30;;
8046;SDS011;67150;42.516;23.358;2023-09-19T13:58:26;5.43;;;4.93;;
8046;SDS011;67150;42.516;23.358;2023-09-19T14:00:56;6.67;;;4.70;;
8046;SDS011;67150;42.516;23.358;2023-09-19T14:03:26;5.20;;;4.73;;
8046;SDS011;67150;42.516;23.358;2023-09-19T14:05:54;5.63;;;4.80;;
8046;SDS011;67150;42.516;23.358;2023-09-19T14:08:21;4.80;;;4.40;;
8046;SDS011;67150;42.516;23.358;2023-09-19T14:10:50;5.33;;;4.83;;
8046;SDS011;67150;42.516;23.358;2023-09-19T14:13:18;5.40;;;4.90;;
8046;SDS011;67150;42.516;23.358;2023-09-19T14:15:46;5.20;;;4.70;;
8046;SDS011;67150;42.516;23.358;2023-09-19T14:18:13;5.40;;;4.90;;
8046;SDS011;67150;42.516;23.358;2023-09-19T14:20:40;5.40;;;4.90;;
8046;SDS011;67150;42.516;23.358;2023-09-19T14:23:08;4.73;;;4.33;;
8046;SDS011;67150;42.516;23.358;2023-09-19T14:25:35;4.70;;;4.30;;
8046;SDS011;67150;42.516;23.358;2023-09-19T14:28:04;4.87;;;4.47;;
8046;SDS011;67150;42.516;23.358;2023-09-19T14:30:34;5.13;;;4.67;;
8046;SDS011;67150;42.516;23.358;2023-09-19T14:33:02;5.20;;;4.70;;
8046;SDS011;67150;42.516;23.358;2023-09-19T14:35:31;5.27;;;4.87;;
8046;SDS011;67150;42.516;23.358;2023-09-19T14:37:58;5.07;;;4.67;;
8046;SDS011;67150;42.516;23.358;2023-09-19T14:40:25;5.10;;;4.70;;
8046;SDS011;67150;42.516;23.358;2023-09-19T14:42:53;4.93;;;4.53;;
8046;SDS011;67150;42.516;23.358;2023-09-19T14:45:20;5.17;;;4.70;;
8046;SDS011;67150;42.516;23.358;2023-09-19T14:47:50;5.07;;;4.50;;
8046;SDS011;67150;42.516;23.358;2023-09-19T14:50:20;6.17;;;4.63;;
8046;SDS011;67150;42.516;23.358;2023-09-19T14:52:47;5.30;;;4.90;;
8046;SDS011;67150;42.516;23.358;2023-09-19T14:55:17;4.57;;;4.27;;
8046;SDS011;67150;42.516;23.358;2023-09-19T14:57:48;5.20;;;4.70;;
8046;SDS011;67150;42.516;23.358;2023-09-19T15:00:16;4.83;;;4.43;;
8046;SDS011;67150;42.516;23.358;2023-09-19T15:02:46;4.80;;;4.40;;
8046;SDS011;67150;42.516;23.358;2023-09-19T15:05:16;5.67;;;4.07;;
8046;SDS011;67150;42.516;23.358;2023-09-19T15:07:44;4.33;;;4.03;;
8046;SDS011;67150;42.516;23.358;2023-09-19T15:10:11;4.60;;;4.20;;
8046;SDS011;67150;42.516;23.358;2023-09-19T15:12:38;4.80;;;4.30;;
8046;SDS011;67150;42.516;23.358;2023-09-19T15:15:06;5.43;;;4.20;;
8046;SDS011;67150;42.516;23.358;2023-09-19T15:17:35;4.77;;;4.37;;
8046;SDS011;67150;42.516;23.358;2023-09-19T15:20:03;4.67;;;4.20;;
8046;SDS011;67150;42.516;23.358;2023-09-19T15:22:33;4.90;;;4.50;;
8046;SDS011;67150;42.516;23.358;2023-09-19T15:25:01;4.33;;;4.03;;
8046;SDS011;67150;42.516;23.358;2023-09-19T15:27:29;4.50;;;4.10;;
8046;SDS011;67150;42.516;23.358;2023-09-19T15:29:58;4.67;;;4.20;;
8046;SDS011;67150;42.516;23.358;2023-09-19T15:32:28;4.67;;;4.27;;
8046;SDS011;67150;42.516;23.358;2023-09-19T15:34:55;4.43;;;4.13;;
8046;SDS011;67150;42.516;23.358;2023-09-19T15:37:23;4.20;;;3.90;;